Aeroporto :







RITROVATECI SU...

 
LOGIN :

Iscrizione | Disclaimer

   EN    FR    IT 

 









Sommario :    VFR   VFR Marginale   IFR   IFR Intensivo   IFR Molto Intensivo
Visibilità : 
Base nubi : 
>= 8 km
>= 3000ft
5 / 8 km
1000 / 3000 ft
1500m / 5 km
500 / 1000 ft
800 / 1500m
200 / 500 ft
< 800m
< 200 ft
Simboli :   Temporali  Nebbia  Neve Forte  Precipitazioni Forti  Vento > 20 kt






- Altitudine del aeroporto : 58 ft
- Codice IATA : POS


TTPP - Piarco Int.

ULTIMO METAR :
  • 300700Z 12005KT 9999 FEW016 24/21 Q1012 NOSIG

METARs OBSOLETI :
  • 300600Z 00000KT 9999 FEW016 24/21 Q1012 NOSIG
  • 300500Z 08003KT 9999 FEW016 24/21 Q1013 NOSIG

TAF TAF TTPP
Valido dal 30 a 06 ore il 31 a 06 ore UTC


300400Z 3006/3106 09005KT 9999 FEW016
PROB30
TEMPO 3010/3015 SHRA BKN016
BECMG 3012/3014 11012KT SCT022
BECMG 3100/3102 09005KT FEW016



MetMap, La meteo Aeronautica in un colpo d'occhio ! - Copyright ORBIFLY Dicembre 2007 - Disclaimer

ORBIFLY MET'MAP TEAM :

Programmazione e sviluppo : Alexandra Zaïnal
Concezione : Baudouin d'Aumeries
Aiuto per la programmazione : Marc-Olivier Méhu
Supporto tecnico e logistico : Manuel Goepfert
Aiuto per la traduzione : Arnaldo La Scala

Contatto : metmap@orbifly.com




FONTI E CREDITI :

   NOAA